Time;durP1;ratioP1;P1;durP2;ratioP2;P2;SDS_P1;SDS_P2;PMS_P1;PMS_P2;Temp;Humidity;BMP_temperature;BMP_pressure;BME280_temperature;BME280_humidity;BME280_pressure;Samples;Min_cycle;Max_cycle;Signal;HPM_P1;HPM_P2
2024/02/15 00:01:57;;;;;;;5.23;2.43;;;13.00;99.90;;;;;;5072012;28;20201;-70
2024/02/15 00:04:23;;;;;;;3.43;2.30;;;13.00;99.90;;;;;;5073319;28;20166;-70
2024/02/15 00:06:48;;;;;;;3.23;1.50;;;13.00;99.90;;;;;;5073184;28;20190;-70
2024/02/15 00:09:14;;;;;;;2.27;1.63;;;13.00;99.90;;;;;;5072974;28;20166;-70
2024/02/15 00:11:39;;;;;;;3.00;1.53;;;13.00;99.90;;;;;;5072820;28;20163;-70
2024/02/15 00:14:05;;;;;;;7.20;2.63;;;13.00;99.90;;;;;;5072929;28;20163;-70
2024/02/15 00:16:31;;;;;;;4.00;2.17;;;13.00;99.90;;;;;;5072808;28;20186;-70
2024/02/15 00:18:57;;;;;;;1.87;1.77;;;13.20;99.90;;;;;;5073007;28;20401;-70
2024/02/15 00:21:22;;;;;;;7.20;2.40;;;13.10;99.90;;;;;;5071406;28;20232;-70
2024/02/15 00:23:48;;;;;;;4.63;3.00;;;13.10;99.90;;;;;;5072645;28;20190;-69
2024/02/15 00:26:14;;;;;;;5.70;3.33;;;13.10;99.90;;;;;;5072587;28;20190;-71
2024/02/15 00:28:42;;;;;;;7.30;2.40;;;13.10;99.90;;;;;;5072009;28;20172;-70
2024/02/15 00:31:08;;;;;;;3.33;2.37;;;13.10;99.90;;;;;;5071984;28;20404;-69
2024/02/15 00:33:35;;;;;;;3.10;2.27;;;13.20;99.90;;;;;;5072647;28;20454;-70
2024/02/15 00:36:01;;;;;;;6.93;2.43;;;13.20;99.90;;;;;;5072604;28;20186;-70
2024/02/15 00:38:27;;;;;;;4.80;2.30;;;13.10;99.90;;;;;;5072626;28;20428;-69
2024/02/15 00:40:53;;;;;;;4.13;2.30;;;13.10;99.90;;;;;;5072262;28;20435;-70
2024/02/15 00:43:19;;;;;;;4.97;2.03;;;13.20;99.90;;;;;;5072522;28;20193;-70
2024/02/15 00:45:45;;;;;;;4.40;2.20;;;13.20;99.90;;;;;;5072546;28;20392;-70
2024/02/15 00:48:10;;;;;;;1.87;1.73;;;13.20;99.90;;;;;;5072266;28;20401;-69
2024/02/15 00:50:36;;;;;;;6.40;2.27;;;13.20;99.90;;;;;;5072535;28;20397;-70
2024/02/15 00:53:02;;;;;;;3.67;1.80;;;13.20;99.90;;;;;;5071680;28;20248;-70
2024/02/15 00:55:27;;;;;;;2.13;1.70;;;13.20;99.90;;;;;;5071013;28;20166;-70
2024/02/15 00:57:52;;;;;;;5.87;2.03;;;13.20;99.90;;;;;;5071227;28;20253;-70
2024/02/15 01:00:18;;;;;;;3.97;2.00;;;13.30;99.90;;;;;;5069919;28;20253;-70
2024/02/15 01:02:45;;;;;;;3.70;3.33;;;13.30;99.90;;;;;;5071423;28;20671;-70
2024/02/15 01:05:11;;;;;;;4.47;1.83;;;13.30;99.90;;;;;;5071472;28;20227;-70
2024/02/15 01:07:37;;;;;;;3.90;1.87;;;13.20;99.90;;;;;;5071302;28;20915;-69
2024/02/15 01:10:03;;;;;;;3.13;2.57;;;13.20;99.90;;;;;;5071043;28;20170;-70
2024/02/15 01:12:29;;;;;;;3.97;2.10;;;13.20;99.90;;;;;;5071240;28;20566;-70
2024/02/15 01:14:56;;;;;;;2.43;2.23;;;13.30;99.90;;;;;;5071199;28;20396;-70
2024/02/15 01:17:21;;;;;;;2.13;1.93;;;13.40;99.90;;;;;;5071471;28;20182;-69
2024/02/15 01:19:47;;;;;;;2.03;1.83;;;13.30;99.90;;;;;;5071037;28;20404;-70
2024/02/15 01:22:12;;;;;;;1.90;1.53;;;13.20;99.90;;;;;;5071185;28;20705;-70
2024/02/15 01:24:38;;;;;;;2.07;1.97;;;13.20;99.90;;;;;;5071144;28;20168;-70
2024/02/15 01:27:04;;;;;;;2.93;2.17;;;13.10;99.90;;;;;;5071050;28;20603;-70
2024/02/15 01:29:29;;;;;;;7.67;2.17;;;13.20;99.90;;;;;;5070824;28;20525;-70
2024/02/15 01:31:55;;;;;;;1.73;1.53;;;13.20;99.90;;;;;;5071061;28;20186;-70
2024/02/15 01:34:21;;;;;;;2.40;2.07;;;13.20;99.90;;;;;;5071074;28;20155;-70
2024/02/15 01:36:48;;;;;;;3.57;1.97;;;13.30;99.90;;;;;;5071017;28;20518;-70
2024/02/15 01:39:14;;;;;;;3.40;2.17;;;13.10;99.90;;;;;;5071169;28;20162;-69
2024/02/15 01:41:39;;;;;;;4.67;1.70;;;13.10;99.90;;;;;;5068376;28;20399;-70
2024/02/15 01:44:06;;;;;;;2.90;2.57;;;13.00;99.90;;;;;;5070936;28;20170;-70
2024/02/15 01:46:33;;;;;;;5.63;1.70;;;13.00;99.90;;;;;;5070920;28;20182;-70
2024/02/15 01:48:58;;;;;;;11.07;1.80;;;13.00;99.90;;;;;;5070994;28;20401;-70
2024/02/15 01:51:26;;;;;;;4.93;1.67;;;13.00;99.90;;;;;;5070670;28;20401;-70
2024/02/15 01:53:53;;;;;;;1.43;1.33;;;13.00;99.90;;;;;;5033486;28;1085565;-70
2024/02/15 01:56:20;;;;;;;3.60;1.83;;;12.90;99.90;;;;;;5071649;28;20186;-70
2024/02/15 01:58:46;;;;;;;5.17;2.03;;;12.90;99.90;;;;;;5071868;28;20864;-70
2024/02/15 02:01:13;;;;;;;3.03;1.87;;;12.90;99.90;;;;;;5071307;28;20507;-70
2024/02/15 02:03:39;;;;;;;1.57;1.47;;;12.80;99.90;;;;;;5071505;28;20495;-70
2024/02/15 02:06:05;;;;;;;2.57;1.70;;;12.80;99.90;;;;;;5071470;28;20478;-70
2024/02/15 02:08:30;;;;;;;1.30;1.20;;;12.90;99.90;;;;;;5071501;28;20428;-70
2024/02/15 02:10:57;;;;;;;2.00;1.47;;;12.90;99.90;;;;;;5071198;28;20538;-69
2024/02/15 02:13:23;;;;;;;4.80;1.77;;;13.00;99.90;;;;;;5071383;28;20204;-70
2024/02/15 02:15:48;;;;;;;2.60;1.30;;;13.00;99.90;;;;;;5071348;28;20420;-70
2024/02/15 02:18:14;;;;;;;1.40;1.30;;;13.00;99.90;;;;;;5070163;28;20439;-69
2024/02/15 02:20:39;;;;;;;4.47;1.20;;;13.10;99.90;;;;;;5071196;28;20221;-70
2024/02/15 02:23:13;;;;;;;3.30;1.20;;;13.00;99.90;;;;;;5071658;28;20536;-70
2024/02/15 02:25:39;;;;;;;1.83;1.60;;;13.00;99.90;;;;;;5071307;28;20212;-69
2024/02/15 02:28:06;;;;;;;5.50;1.63;;;13.00;99.90;;;;;;5071177;28;20487;-70
2024/02/15 02:30:32;;;;;;;2.83;1.10;;;12.90;99.90;;;;;;5071446;28;20405;-70
2024/02/15 02:32:58;;;;;;;3.87;1.40;;;12.90;99.90;;;;;;5071058;28;20569;-71
2024/02/15 02:35:24;;;;;;;1.57;1.17;;;12.90;99.90;;;;;;5071222;28;20177;-70
2024/02/15 02:37:52;;;;;;;2.10;1.20;;;12.90;99.90;;;;;;5071115;28;20456;-70
2024/02/15 02:40:18;;;;;;;1.30;1.20;;;12.90;99.90;;;;;;5071002;28;20427;-70
2024/02/15 02:42:51;;;;;;;1.70;1.20;;;12.90;99.90;;;;;;5071141;28;20420;-70
2024/02/15 02:45:19;;;;;;;3.13;0.93;;;12.80;99.90;;;;;;5071175;28;20173;-70
2024/02/15 02:47:48;;;;;;;1.77;1.20;;;12.80;99.90;;;;;;5070974;28;20821;-69
2024/02/15 02:50:14;;;;;;;1.30;1.20;;;12.80;99.90;;;;;;5070833;28;20420;-70
2024/02/15 02:52:40;;;;;;;1.40;1.30;;;12.70;99.90;;;;;;5071496;28;20463;-70
2024/02/15 02:55:08;;;;;;;1.93;1.60;;;12.70;99.90;;;;;;5074684;28;20170;-70
2024/02/15 02:57:40;;;;;;;2.37;1.30;;;12.60;99.90;;;;;;5074542;28;20448;-70
2024/02/15 03:00:15;;;;;;;1.80;1.43;;;12.60;99.90;;;;;;5074368;28;20408;-70
2024/02/15 03:02:42;;;;;;;2.03;1.50;;;12.40;99.90;;;;;;5074533;28;20766;-69
2024/02/15 03:05:08;;;;;;;2.10;1.67;;;12.20;99.90;;;;;;5074494;28;20902;-69
2024/02/15 03:07:37;;;;;;;2.13;1.50;;;12.20;99.90;;;;;;5074571;28;20470;-70
2024/02/15 03:10:08;;;;;;;10.00;1.73;;;12.10;99.90;;;;;;5074217;28;20495;-70
2024/02/15 03:12:37;;;;;;;1.80;1.70;;;12.00;99.90;;;;;;5074218;28;20446;-69
2024/02/15 03:15:11;;;;;;;2.37;2.03;;;11.90;99.90;;;;;;5072935;28;20413;-70
2024/02/15 03:17:41;;;;;;;2.57;1.70;;;11.90;99.90;;;;;;5074139;28;20412;-70
2024/02/15 03:20:20;;;;;;;3.63;1.90;;;11.80;99.90;;;;;;5073990;28;20405;-70
2024/02/15 03:22:59;;;;;;;2.17;1.67;;;11.80;99.90;;;;;;5074040;28;20950;-70
2024/02/15 03:25:26;;;;;;;2.83;2.00;;;11.80;99.90;;;;;;5074051;28;20404;-70
2024/02/15 03:27:52;;;;;;;2.03;1.93;;;11.80;99.90;;;;;;5073955;28;20856;-70
2024/02/15 03:30:22;;;;;;;2.27;1.80;;;11.80;99.90;;;;;;5073661;28;20495;-70
2024/02/15 03:32:53;;;;;;;3.63;3.23;;;11.80;99.90;;;;;;5072424;28;20462;-70
2024/02/15 03:35:22;;;;;;;1.80;1.63;;;11.90;99.90;;;;;;5073814;28;20392;-70
2024/02/15 03:37:50;;;;;;;4.63;2.10;;;11.80;99.90;;;;;;5073157;28;20428;-70
2024/02/15 03:40:16;;;;;;;2.70;2.30;;;11.90;99.90;;;;;;5073564;28;20921;-70
2024/02/15 03:42:42;;;;;;;2.23;1.90;;;11.90;99.90;;;;;;5073655;28;20458;-70
2024/02/15 03:45:08;;;;;;;2.70;2.10;;;12.00;99.90;;;;;;5073732;28;20896;-70
2024/02/15 03:47:35;;;;;;;2.53;1.90;;;12.10;99.90;;;;;;5072361;28;20201;-70
2024/02/15 03:50:04;;;;;;;3.70;1.97;;;12.10;99.90;;;;;;5073457;28;20198;-70
2024/02/15 03:52:30;;;;;;;3.13;1.97;;;12.20;99.90;;;;;;5072008;28;20598;-70
2024/02/15 03:54:59;;;;;;;3.23;2.27;;;12.20;99.90;;;;;;5073552;28;20408;-70
2024/02/15 03:57:25;;;;;;;3.90;2.80;;;12.20;99.90;;;;;;5073114;28;20448;-70
2024/02/15 03:59:52;;;;;;;3.73;2.33;;;12.10;99.90;;;;;;5073119;28;20408;-70
2024/02/15 04:02:23;;;;;;;4.00;2.13;;;12.10;99.90;;;;;;5072073;28;20420;-70
2024/02/15 04:04:49;;;;;;;3.10;2.80;;;12.10;99.90;;;;;;5072348;28;20409;-70
2024/02/15 04:07:16;;;;;;;2.20;1.70;;;12.20;99.90;;;;;;5073397;28;20460;-70
2024/02/15 04:09:42;;;;;;;2.33;2.13;;;12.10;99.90;;;;;;5073087;28;20879;-70
2024/02/15 04:12:07;;;;;;;1.90;1.60;;;12.10;99.90;;;;;;5073067;28;20444;-70
2024/02/15 04:14:38;;;;;;;3.00;1.87;;;12.00;99.90;;;;;;5073214;28;20461;-70
2024/02/15 04:17:04;;;;;;;4.10;1.73;;;12.00;99.90;;;;;;5071880;28;20221;-70
2024/02/15 04:19:33;;;;;;;3.37;1.60;;;12.10;99.90;;;;;;5072810;28;20803;-70
2024/02/15 04:22:00;;;;;;;2.10;1.57;;;12.10;99.90;;;;;;5072851;28;20413;-70
2024/02/15 04:24:26;;;;;;;1.77;1.20;;;12.20;99.90;;;;;;5073029;28;20409;-70
2024/02/15 04:26:52;;;;;;;9.23;1.70;;;12.30;99.90;;;;;;5072805;28;20455;-70
2024/02/15 04:29:20;;;;;;;2.10;1.33;;;12.30;99.90;;;;;;5072622;28;20400;-69
2024/02/15 04:31:49;;;;;;;4.57;1.47;;;12.40;99.90;;;;;;5072903;28;20257;-70
2024/02/15 04:34:17;;;;;;;2.20;2.00;;;12.40;99.90;;;;;;5072631;28;20434;-69
2024/02/15 04:36:50;;;;;;;1.80;1.67;;;12.50;99.90;;;;;;5072728;28;20424;-70
2024/02/15 04:39:29;;;;;;;3.57;1.70;;;12.50;99.90;;;;;;5072429;28;20416;-70
2024/02/15 04:41:55;;;;;;;1.63;1.53;;;12.50;99.90;;;;;;5072709;28;20401;-69
2024/02/15 04:44:21;;;;;;;1.60;1.50;;;12.50;99.90;;;;;;5072613;28;20411;-69
2024/02/15 04:46:47;;;;;;;2.00;1.60;;;12.50;99.90;;;;;;5072420;28;20268;-70
2024/02/15 04:49:14;;;;;;;2.43;1.50;;;12.50;99.90;;;;;;5072343;28;20182;-70
2024/02/15 04:51:41;;;;;;;4.00;1.30;;;12.40;99.90;;;;;;5072283;28;20400;-69
2024/02/15 04:54:13;;;;;;;2.90;1.77;;;12.40;99.90;;;;;;5072442;28;20462;-70
2024/02/15 04:56:39;;;;;;;5.10;2.00;;;12.30;99.90;;;;;;5072272;28;20466;-70
2024/02/15 04:59:08;;;;;;;2.30;1.30;;;12.40;99.90;;;;;;5072231;28;20407;-69
2024/02/15 05:01:34;;;;;;;3.40;1.50;;;12.40;99.90;;;;;;5071663;28;20475;-70
2024/02/15 05:04:05;;;;;;;1.43;1.33;;;12.40;99.90;;;;;;5072196;28;20401;-70
2024/02/15 05:06:32;;;;;;;1.53;1.33;;;12.50;99.90;;;;;;5072148;28;20490;-70
2024/02/15 05:08:59;;;;;;;1.40;1.30;;;12.60;99.90;;;;;;5072176;28;20454;-69
2024/02/15 05:11:25;;;;;;;2.30;1.57;;;12.60;99.90;;;;;;5070624;28;20412;-69
2024/02/15 05:13:51;;;;;;;2.10;1.33;;;12.60;99.90;;;;;;5072033;28;20590;-70
2024/02/15 05:16:17;;;;;;;3.10;1.50;;;12.60;99.90;;;;;;5071803;28;20432;-71
2024/02/15 05:18:43;;;;;;;1.97;1.57;;;12.70;99.90;;;;;;5072044;28;20604;-70
2024/02/15 05:21:11;;;;;;;1.60;1.50;;;12.60;99.90;;;;;;5071777;28;20796;-70
2024/02/15 05:23:39;;;;;;;1.50;1.40;;;12.60;99.90;;;;;;5071958;28;20581;-70
2024/02/15 05:26:05;;;;;;;3.40;1.77;;;12.60;99.90;;;;;;5071828;28;20481;-71
2024/02/15 05:28:32;;;;;;;2.00;1.80;;;12.60;99.90;;;;;;5071811;28;20420;-71
2024/02/15 05:31:10;;;;;;;2.30;1.47;;;12.60;99.90;;;;;;5071722;28;20770;-70
2024/02/15 05:33:42;;;;;;;8.53;1.80;;;12.70;99.90;;;;;;5071732;28;20464;-70
2024/02/15 05:36:08;;;;;;;2.87;2.00;;;12.70;99.90;;;;;;5071806;28;20432;-70
2024/02/15 05:38:34;;;;;;;1.47;1.30;;;12.60;99.90;;;;;;5071706;28;20437;-70
2024/02/15 05:41:00;;;;;;;1.37;1.20;;;12.70;99.90;;;;;;5071477;28;20447;-70
2024/02/15 05:43:25;;;;;;;5.03;1.80;;;12.70;99.90;;;;;;5071781;28;20202;-71
2024/02/15 05:45:52;;;;;;;1.50;1.40;;;12.70;99.90;;;;;;5071705;28;20424;-70
2024/02/15 05:48:18;;;;;;;5.40;2.17;;;12.80;99.90;;;;;;5071651;28;20678;-70
2024/02/15 05:50:44;;;;;;;1.80;1.50;;;12.80;99.90;;;;;;5071610;28;20413;-70
2024/02/15 05:53:09;;;;;;;6.67;1.63;;;12.80;99.90;;;;;;5071426;28;20580;-71
2024/02/15 05:55:36;;;;;;;3.87;2.10;;;12.90;99.90;;;;;;5071557;28;20193;-70
2024/02/15 05:58:02;;;;;;;1.70;1.50;;;12.90;99.90;;;;;;5071549;28;20155;-70
2024/02/15 06:00:29;;;;;;;1.40;1.30;;;12.90;99.90;;;;;;5071337;28;20396;-70
2024/02/15 06:02:55;;;;;;;3.83;1.57;;;12.90;99.90;;;;;;5071691;28;20974;-71
2024/02/15 06:05:21;;;;;;;1.90;1.63;;;12.80;99.90;;;;;;5071580;28;20488;-70
2024/02/15 06:07:47;;;;;;;2.30;1.47;;;12.80;99.90;;;;;;5071437;28;20426;-70
2024/02/15 06:10:14;;;;;;;1.90;1.33;;;12.80;99.90;;;;;;5070007;28;20863;-71
2024/02/15 06:12:40;;;;;;;2.70;1.70;;;12.80;99.90;;;;;;5071416;28;20380;-71
2024/02/15 06:15:14;;;;;;;2.63;2.20;;;12.80;99.90;;;;;;5071696;28;20891;-71
2024/02/15 06:17:40;;;;;;;3.60;2.60;;;12.80;99.90;;;;;;5071456;28;20427;-70
2024/02/15 06:20:07;;;;;;;3.27;2.90;;;12.70;99.90;;;;;;5071161;28;20492;-70
2024/02/15 06:22:33;;;;;;;3.70;2.73;;;12.60;99.90;;;;;;5071216;28;20416;-70
2024/02/15 06:24:58;;;;;;;3.37;2.57;;;12.50;99.90;;;;;;5071385;28;20409;-70
2024/02/15 06:27:24;;;;;;;3.90;2.97;;;12.40;99.90;;;;;;5071573;28;20661;-70
2024/02/15 06:40:46;;;;;;;5.53;3.03;;;12.30;99.90;;;;;;5074711;28;20418;-71
2024/02/15 06:43:12;;;;;;;3.53;2.73;;;12.40;99.90;;;;;;5073533;28;20815;-71
2024/02/15 06:45:41;;;;;;;4.70;2.70;;;12.40;99.90;;;;;;5073425;28;20188;-71
2024/02/15 06:48:07;;;;;;;8.90;5.00;;;12.30;99.90;;;;;;5074793;28;20159;-70
2024/02/15 06:50:32;;;;;;;15.20;3.47;;;12.30;99.90;;;;;;5074480;28;20439;-70
2024/02/15 06:52:58;;;;;;;8.90;3.33;;;12.30;99.90;;;;;;5074538;28;20213;-70
2024/02/15 06:55:23;;;;;;;3.70;3.30;;;12.30;99.90;;;;;;5074751;28;20173;-70
2024/02/15 06:57:49;;;;;;;2.70;2.50;;;12.40;99.90;;;;;;5074506;28;20182;-70
2024/02/15 07:00:15;;;;;;;4.80;3.63;;;12.40;99.90;;;;;;5073013;28;20261;-71
2024/02/15 07:02:41;;;;;;;3.13;2.73;;;12.40;99.90;;;;;;5074574;28;20166;-70
2024/02/15 07:05:07;;;;;;;4.00;3.13;;;12.30;99.90;;;;;;5073919;28;20170;-66
2024/02/15 07:07:34;;;;;;;2.93;2.57;;;12.30;99.90;;;;;;5074350;28;20897;-67
2024/02/15 07:10:02;;;;;;;3.43;3.13;;;12.30;99.90;;;;;;5074219;28;20960;-66
2024/02/15 07:12:28;;;;;;;3.80;2.70;;;12.30;99.90;;;;;;5074251;28;20440;-66
2024/02/15 07:14:54;;;;;;;5.93;3.37;;;12.30;99.90;;;;;;5074353;28;20453;-66
2024/02/15 07:17:20;;;;;;;12.60;3.40;;;12.30;99.90;;;;;;5074269;28;20227;-67
2024/02/15 07:19:49;;;;;;;5.30;3.33;;;12.40;99.90;;;;;;5074018;28;20899;-67
2024/02/15 07:22:15;;;;;;;3.00;2.70;;;12.40;99.90;;;;;;5073907;28;20158;-67
2024/02/15 07:24:40;;;;;;;3.40;3.10;;;12.40;99.90;;;;;;5058372;28;20409;-66
2024/02/15 07:27:06;;;;;;;4.63;3.40;;;12.40;99.90;;;;;;5053950;28;20787;-67
2024/02/15 07:29:32;;;;;;;3.53;3.20;;;12.40;99.90;;;;;;5053751;28;20248;-66
2024/02/15 07:32:02;;;;;;;4.20;2.37;;;12.40;99.90;;;;;;5054037;28;20175;-67
2024/02/15 07:34:27;;;;;;;4.40;3.30;;;12.40;99.90;;;;;;5053894;28;20485;-67
2024/02/15 07:36:53;;;;;;;5.60;3.00;;;12.50;99.90;;;;;;5053840;28;20582;-67
2024/02/15 07:39:24;;;;;;;6.20;2.97;;;12.50;99.90;;;;;;5053547;28;20163;-67
2024/02/15 07:41:51;;;;;;;2.67;2.47;;;12.50;99.90;;;;;;5053774;28;20163;-66
2024/02/15 07:44:17;;;;;;;8.00;3.30;;;12.60;99.90;;;;;;5053710;28;20770;-67
2024/02/15 07:46:43;;;;;;;5.50;2.70;;;12.60;99.90;;;;;;5053635;28;21086;-67
2024/02/15 07:49:09;;;;;;;4.10;2.90;;;12.60;99.90;;;;;;5053719;28;20393;-67
2024/02/15 07:51:35;;;;;;;2.33;2.13;;;12.50;99.90;;;;;;5053051;28;20401;-66
2024/02/15 07:54:01;;;;;;;6.13;3.07;;;12.60;99.90;;;;;;5054020;28;20201;-67
2024/02/15 07:56:27;;;;;;;7.97;2.53;;;12.60;99.90;;;;;;5053427;28;20417;-67
2024/02/15 07:58:52;;;;;;;5.27;2.43;;;12.60;99.90;;;;;;5053498;28;20172;-67
2024/02/15 08:01:21;;;;;;;3.37;2.10;;;12.60;99.90;;;;;;5053180;28;20163;-66
2024/02/15 08:03:47;;;;;;;5.43;3.27;;;12.70;99.90;;;;;;5053409;28;20176;-66
2024/02/15 08:06:14;;;;;;;10.50;2.80;;;12.70;99.90;;;;;;5053279;28;20928;-66
2024/02/15 08:08:41;;;;;;;12.63;2.70;;;12.70;99.90;;;;;;5053281;28;20200;-67
2024/02/15 08:11:14;;;;;;;3.47;3.00;;;12.70;99.90;;;;;;5053074;28;20413;-67
2024/02/15 08:13:50;;;;;;;4.97;2.33;;;12.70;99.90;;;;;;5053122;28;20815;-67
2024/02/15 08:16:17;;;;;;;5.70;2.40;;;12.70;99.90;;;;;;5053099;28;20459;-66
2024/02/15 08:18:46;;;;;;;5.77;2.50;;;12.70;99.90;;;;;;5053062;28;20433;-66
2024/02/15 08:21:12;;;;;;;4.53;2.67;;;12.70;99.90;;;;;;5051417;28;20928;-66
2024/02/15 08:23:38;;;;;;;9.43;2.33;;;12.70;99.90;;;;;;5053005;28;20394;-67
2024/02/15 08:26:04;;;;;;;2.53;2.10;;;12.70;99.90;;;;;;5052645;28;20520;-68
2024/02/15 08:28:29;;;;;;;4.00;2.30;;;12.70;99.90;;;;;;5052859;28;20163;-67
2024/02/15 08:30:57;;;;;;;4.30;2.63;;;12.70;99.90;;;;;;5052368;28;20415;-67
2024/02/15 08:33:23;;;;;;;3.20;2.53;;;12.70;99.90;;;;;;5052870;28;20222;-67
2024/02/15 08:35:49;;;;;;;2.63;1.77;;;12.70;99.90;;;;;;5052629;28;20437;-66
2024/02/15 08:38:14;;;;;;;5.13;2.07;;;12.60;99.90;;;;;;5052764;28;20424;-67
2024/02/15 08:40:40;;;;;;;3.97;2.43;;;12.60;99.90;;;;;;5052367;28;20163;-67
2024/02/15 08:43:06;;;;;;;6.23;4.27;;;12.60;99.90;;;;;;5052567;28;20258;-68
2024/02/15 08:45:31;;;;;;;2.87;2.00;;;12.60;99.90;;;;;;5052487;28;20178;-67
2024/02/15 08:47:57;;;;;;;4.40;1.93;;;12.60;99.90;;;;;;5052589;28;20700;-66
2024/02/15 08:50:23;;;;;;;2.73;2.13;;;12.80;99.90;;;;;;5051639;28;20171;-68
2024/02/15 08:52:49;;;;;;;1.93;1.80;;;12.90;99.90;;;;;;5052252;28;20194;-67
2024/02/15 08:55:16;;;;;;;7.13;2.63;;;13.00;99.90;;;;;;5051199;28;20876;-67
2024/02/15 08:57:43;;;;;;;2.30;2.10;;;13.20;99.90;;;;;;5052318;28;20444;-67
2024/02/15 09:00:13;;;;;;;4.00;2.03;;;13.30;99.90;;;;;;5052135;28;20402;-67
2024/02/15 09:02:48;;;;;;;3.60;2.30;;;13.50;99.90;;;;;;5052321;28;20409;-68
2024/02/15 09:05:14;;;;;;;2.20;2.00;;;13.70;99.90;;;;;;5052240;28;20405;-67
2024/02/15 09:07:42;;;;;;;3.03;2.00;;;13.80;99.90;;;;;;5052399;28;20432;-67
2024/02/15 09:10:11;;;;;;;3.73;2.23;;;13.90;99.90;;;;;;5051975;28;20248;-67
2024/02/15 09:12:39;;;;;;;3.70;1.87;;;14.10;99.90;;;;;;5052065;28;20441;-68
2024/02/15 09:15:08;;;;;;;2.47;1.70;;;14.10;99.90;;;;;;5052172;28;20764;-67
2024/02/15 09:17:38;;;;;;;1.97;1.60;;;14.30;99.90;;;;;;5051370;28;20617;-68
2024/02/15 09:20:14;;;;;;;4.87;2.00;;;14.50;99.90;;;;;;5051957;28;20389;-67
2024/02/15 09:22:54;;;;;;;4.90;1.90;;;14.70;99.90;;;;;;5051818;28;20466;-67
2024/02/15 09:25:23;;;;;;;4.73;1.83;;;14.90;99.90;;;;;;5051730;28;20404;-68
2024/02/15 09:27:49;;;;;;;3.60;2.00;;;15.00;99.90;;;;;;5051415;28;20425;-67
2024/02/15 09:30:16;;;;;;;2.40;1.70;;;15.10;99.90;;;;;;5051654;28;20404;-67
2024/02/15 09:32:43;;;;;;;3.13;1.80;;;15.10;99.90;;;;;;5051714;28;20451;-67
2024/02/15 09:35:11;;;;;;;4.37;1.90;;;15.20;99.90;;;;;;5051783;28;20398;-68
2024/02/15 09:37:38;;;;;;;3.73;1.80;;;15.20;99.90;;;;;;5061688;28;20949;-68
2024/02/15 09:40:16;;;;;;;3.10;2.37;;;15.40;99.90;;;;;;5071600;28;20963;-66
2024/02/15 09:42:41;;;;;;;3.43;1.63;;;15.50;99.90;;;;;;5071723;28;20430;-68
2024/02/15 09:45:11;;;;;;;1.80;1.70;;;15.70;99.90;;;;;;5071703;28;20803;-67
2024/02/15 09:50:59;;;;;;;2.20;2.00;;;16.00;99.90;;;;;;5070482;28;20435;-66
2024/02/15 09:53:26;;;;;;;2.03;1.63;;;16.20;99.90;;;;;;5071946;28;20460;-67
2024/02/15 09:55:54;;;;;;;2.87;1.87;;;16.40;99.90;;;;;;5071166;28;20423;-67
2024/02/15 09:58:19;;;;;;;2.13;1.63;;;16.60;99.90;;;;;;5071705;28;20401;-67
2024/02/15 10:00:46;;;;;;;7.27;2.03;;;16.80;99.90;;;;;;5071513;28;20408;-66
2024/02/15 10:03:18;;;;;;;10.33;2.37;;;16.90;99.90;;;;;;5073583;28;20532;-67
2024/02/15 10:05:44;;;;;;;4.47;1.87;;;16.80;99.90;;;;;;5075765;28;20400;-67
2024/02/15 10:08:11;;;;;;;2.60;1.80;;;16.70;99.90;;;;;;5075639;28;20462;-67
2024/02/15 10:10:36;;;;;;;3.23;1.90;;;16.50;99.90;;;;;;5075380;28;20579;-66
2024/02/15 10:13:02;;;;;;;2.00;1.63;;;16.40;99.90;;;;;;5075146;28;20455;-68
2024/02/15 10:15:38;;;;;;;2.77;2.20;;;16.30;99.90;;;;;;5075977;28;20170;-67
2024/02/15 10:18:08;;;;;;;2.97;1.67;;;16.30;99.90;;;;;;5075924;28;20602;-70
2024/02/15 10:20:35;;;;;;;9.03;2.80;;;16.20;99.90;;;;;;5075429;28;20405;-69
2024/02/15 10:23:10;;;;;;;4.33;2.17;;;16.20;99.90;;;;;;5074523;28;20432;-69
2024/02/15 10:25:36;;;;;;;3.60;1.87;;;16.20;99.90;;;;;;5075488;28;20476;-70
2024/02/15 10:28:09;;;;;;;3.13;1.87;;;16.20;99.90;;;;;;5073882;28;20919;-70
2024/02/15 10:30:36;;;;;;;1.70;1.43;;;16.40;99.90;;;;;;5073670;28;20927;-68
2024/02/15 10:33:02;;;;;;;2.33;1.63;;;16.50;99.90;;;;;;5075005;28;20439;-70
2024/02/15 10:35:28;;;;;;;3.33;1.50;;;16.70;99.90;;;;;;5075081;28;20396;-70
2024/02/15 10:38:09;;;;;;;3.83;1.30;;;16.90;99.90;;;;;;5074992;28;20872;-70
2024/02/15 10:40:35;;;;;;;1.57;1.03;;;17.10;99.90;;;;;;5073535;28;20174;-70
2024/02/15 10:43:04;;;;;;;5.33;1.93;;;17.20;99.90;;;;;;5074884;28;20408;-70
2024/02/15 10:45:36;;;;;;;5.57;3.33;;;17.40;99.90;;;;;;5074801;28;20446;-70
2024/02/15 10:48:04;;;;;;;1.83;1.13;;;17.50;99.90;;;;;;5074720;28;20400;-69
2024/02/15 10:50:30;;;;;;;6.93;1.73;;;17.60;99.90;;;;;;5074587;28;20411;-70
2024/02/15 10:52:59;;;;;;;2.70;1.37;;;17.60;99.90;;;;;;5074496;28;20817;-70
2024/02/15 10:55:59;;;;;;;5.63;1.20;;;17.80;99.90;;;;;;5075037;28;20162;-70
2024/02/15 10:58:35;;;;;;;2.10;1.13;;;17.90;99.90;;;;;;5074670;28;20412;-70
2024/02/15 11:01:03;;;;;;;2.43;1.40;;;17.80;99.90;;;;;;5072743;28;20408;-67
2024/02/15 11:03:35;;;;;;;3.63;1.20;;;18.10;99.90;;;;;;5074590;28;20458;-67
2024/02/15 11:06:04;;;;;;;6.20;1.97;;;18.10;99.90;;;;;;5074514;28;20435;-66
2024/02/15 11:08:32;;;;;;;1.57;0.97;;;18.40;99.90;;;;;;5074489;28;20767;-69
2024/02/15 11:10:58;;;;;;;3.37;1.50;;;18.60;99.90;;;;;;5074128;28;20945;-65
2024/02/15 11:13:24;;;;;;;6.50;1.30;;;19.10;99.90;;;;;;5073913;28;20538;-67
2024/02/15 11:15:51;;;;;;;3.03;1.13;;;19.40;99.90;;;;;;5074348;28;20508;-67
2024/02/15 11:18:48;;;;;;;1.80;1.30;;;19.80;99.90;;;;;;5074649;28;20159;-67
2024/02/15 11:21:34;;;;;;;4.10;1.60;;;20.20;99.90;;;;;;5074055;28;20894;-67
2024/02/15 11:24:29;;;;;;;0.90;0.80;;;20.50;99.90;;;;;;5074234;28;20401;-67
2024/02/15 11:26:58;;;;;;;2.20;1.90;;;21.00;99.90;;;;;;5074153;28;20431;-67
2024/02/15 11:30:09;;;;;;;3.03;1.50;;;21.20;99.90;;;;;;5073934;28;20401;-66
2024/02/15 11:32:48;;;;;;;2.20;1.20;;;21.40;99.90;;;;;;5073914;28;20450;-66
2024/02/15 11:35:20;;;;;;;3.40;1.30;;;21.70;99.90;;;;;;5074011;28;20424;-66
2024/02/15 11:37:55;;;;;;;2.80;1.40;;;22.50;99.90;;;;;;5073975;28;20412;-67
2024/02/15 11:40:24;;;;;;;5.30;1.17;;;22.70;97.30;;;;;;5073699;28;21012;-64
2024/02/15 11:42:53;;;;;;;1.20;1.00;;;23.30;93.10;;;;;;5073789;28;20400;-65
2024/02/15 11:45:18;;;;;;;1.10;0.90;;;23.60;91.50;;;;;;5073746;28;20771;-65
2024/02/15 11:47:48;;;;;;;3.13;1.20;;;23.80;89.00;;;;;;5073713;28;20420;-65
2024/02/15 11:50:14;;;;;;;2.30;1.00;;;24.00;83.00;;;;;;5073549;28;20173;-65
2024/02/15 11:52:50;;;;;;;2.20;1.37;;;24.10;79.50;;;;;;5073378;28;20460;-66
2024/02/15 11:55:22;;;;;;;1.77;0.90;;;24.30;76.80;;;;;;5073674;28;20400;-66
2024/02/15 11:58:05;;;;;;;1.17;0.90;;;24.40;73.70;;;;;;5073493;28;20783;-66
2024/02/15 12:19:59;;;;;;;1.83;1.20;;;23.20;72.70;;;;;;5073243;28;20469;-66
2024/02/15 12:22:40;;;;;;;2.30;0.87;;;23.90;71.00;;;;;;5073136;28;20401;-66
2024/02/15 12:25:11;;;;;;;1.67;1.10;;;24.10;68.40;;;;;;5072332;28;20491;-66
2024/02/15 12:27:42;;;;;;;4.00;1.07;;;24.40;66.30;;;;;;5072927;28;20424;-66
2024/02/15 12:30:13;;;;;;;3.33;1.20;;;24.20;63.60;;;;;;5072547;28;20397;-66
2024/02/15 12:32:39;;;;;;;2.33;1.20;;;23.70;64.20;;;;;;5072813;28;20482;-66
2024/02/15 12:35:22;;;;;;;1.67;1.20;;;23.10;65.00;;;;;;5072803;28;20795;-66
2024/02/15 12:37:53;;;;;;;1.30;1.00;;;22.90;66.60;;;;;;5072737;28;20182;-66
2024/02/15 12:40:21;;;;;;;1.40;1.17;;;22.70;68.10;;;;;;5072432;28;20412;-66
2024/02/15 12:42:48;;;;;;;1.80;1.23;;;22.30;68.40;;;;;;5072549;28;20404;-66
2024/02/15 12:45:23;;;;;;;1.73;1.20;;;22.20;71.10;;;;;;5072525;28;20820;-66
2024/02/15 12:47:51;;;;;;;2.43;1.10;;;22.20;71.70;;;;;;5072598;28;20793;-66
2024/02/15 12:50:21;;;;;;;6.43;1.33;;;21.80;71.40;;;;;;5072306;28;20408;-66
2024/02/15 12:52:49;;;;;;;1.30;0.93;;;21.80;74.90;;;;;;5072242;28;20915;-67
2024/02/15 12:55:24;;;;;;;2.90;1.30;;;21.90;78.00;;;;;;5072523;28;20415;-66
2024/02/15 12:57:55;;;;;;;2.47;1.20;;;21.80;75.30;;;;;;5072548;28;20431;-66
2024/02/15 13:00:28;;;;;;;2.67;1.20;;;21.80;77.00;;;;;;5072220;28;20415;-66
2024/02/15 13:02:55;;;;;;;2.63;1.33;;;21.60;78.70;;;;;;5072309;28;20412;-66
2024/02/15 13:05:23;;;;;;;2.10;1.30;;;21.50;80.40;;;;;;5072218;28;20817;-66
2024/02/15 13:07:49;;;;;;;1.40;1.00;;;21.40;81.80;;;;;;5072243;28;20428;-65
2024/02/15 13:10:15;;;;;;;1.43;1.07;;;20.90;83.40;;;;;;5071935;28;20499;-66
2024/02/15 13:12:45;;;;;;;1.50;1.40;;;20.60;87.00;;;;;;5072090;28;20488;-66
2024/02/15 13:15:17;;;;;;;1.77;0.90;;;20.30;86.50;;;;;;5072045;28;20915;-66
2024/02/15 13:17:48;;;;;;;1.47;1.17;;;19.90;91.20;;;;;;5070658;28;20420;-66
2024/02/15 13:20:15;;;;;;;2.40;1.30;;;19.80;92.40;;;;;;5072216;28;20474;-65
2024/02/15 13:22:47;;;;;;;1.00;0.90;;;19.50;94.00;;;;;;5071932;28;20748;-66
2024/02/15 13:25:16;;;;;;;2.00;0.90;;;19.50;95.00;;;;;;5070708;28;20412;-65